Terminal Aerodrome Forecast
Issued by NWS

Home | Current Version | Previous Version | Text Only | Print | Product List | Glossary On
Versions: 1 2 3 4 5 6 7 8 9 10 11 12 13 14 15 16 17 18 19 20 21 22 23 24 25 26 27 28 29 30 31 32 33 34 35 36 37 38 39 40 41 42 43 44 45 46 47 48 49 50
000
FTUS43 KDMX 020520
TAFMCW
TAF
KMCW 020520Z 0206/0306 20006KT 5SM BR SCT050 BKN110
     FM020900 22005KT P6SM VCSH SCT080 BKN100
     FM021600 18013G22KT P6SM SCT050 SCT110
     FM022300 18010KT P6SM FEW060
     FM030100 17005KT P6SM SKC=

USA.gov is the U.S. government's official web portal to all federal, state and local government web resources and services.